Tropical Cyclones
[Index]
Season 2023-2024 Tropical Cyclone JASPER Track Map
Season 2023-2024 Summaries: [BoM-AU]
<<- Previous TC | BoM 2023-2024 Season | Next TC ->>

click for intensity scale information  Lat/long Grid: Show Hide

 Date Labels: Show Hide

Bureau of Meteorology Tropical Cyclone Data

Name: JASPER

02 Dec 2023 06:00 UTC to 18 Dec 2023 00:00 UTC

    date/time    lat    long    hPa   cat  kts
2023-12-02 06    8.5   165.0   1005         15          
2023-12-02 12    8.4   164.8   1006         15          
2023-12-02 18    8.4   164.0   1006         20          
2023-12-03 00    8.5   162.7   1005         20          
2023-12-03 06    8.2   162.0   1005         20          
2023-12-03 12    8.0   160.8   1004         25          
2023-12-03 18    7.5   159.1   1004         25          
2023-12-04 00    7.6   158.3   1005         25          
2023-12-04 06    8.1   157.8   1001         25          
2023-12-04 12    8.5   157.8   1001         25          
2023-12-04 18    8.9   157.6    999         30          
2023-12-05 00    9.4   157.8    998         35          
2023-12-05 06    9.4   157.2    993    1    40          
2023-12-05 12    9.5   157.2    994    1    40          
2023-12-05 18   10.1   157.4    991    1    45          
2023-12-06 00   10.6   157.3    987    1    50          
2023-12-06 06   11.3   157.3    977    2    65          
2023-12-06 12   11.5   157.2    969    3    75          
2023-12-06 18   11.7   157.1    967    3    75          
2023-12-07 00   12.0   156.9    969    3    75          
2023-12-07 06   12.6   156.9    966    3    80          
2023-12-07 12   13.1   156.8    960    3    85          
2023-12-07 18   13.7   156.9    943    4    100          
2023-12-08 00   14.2   156.6    940    4    105          
2023-12-08 06   14.4   156.6    938    4    105          
2023-12-08 12   14.9   156.4    946    4    100          
2023-12-08 18   15.2   156.2    951    4    95          
2023-12-09 00   15.5   155.9                90          
2023-12-09 06   15.7   155.3                70          
2023-12-09 12   15.9   155.2    980    2    65          
2023-12-09 18   15.9   154.8    979    2    60          
2023-12-10 00   16.3   154.2    981    2    55          
2023-12-10 06   16.9   153.7    982    2    55          
2023-12-10 12   17.3   152.5    982    2    50          
2023-12-10 18   17.4   151.4    985    2    45          
2023-12-11 00   17.7   150.4    990    1    45          
2023-12-11 06   17.5   149.7    989    1    45          
2023-12-11 12   17.0   148.9    992    1    45          
2023-12-11 18   16.7   148.6    988    1    45          
2023-12-12 00   16.3   148.0    988    1    45          
2023-12-12 06   15.9   147.7    988    1    45          
2023-12-12 12   15.7   147.4    990    1    45          
2023-12-12 18   15.5   146.9    990    1    45          
2023-12-13 00   15.8   146.3    990    1    45          
2023-12-13 06   15.9   145.8    985    2    55          
2023-12-13 10   15.9   145.4    985    2    50          
2023-12-13 12   15.9   145.0    992    1    40          
2023-12-13 18   15.9   144.4    997         30          
2023-12-14 00   16.1   144.2   1001         30          
2023-12-14 06   16.0   143.5   1001         25          
2023-12-14 12   15.9   143.3   1001         20          
2023-12-14 18   15.8   143.2   1001         20          
2023-12-15 00   15.8   142.8   1003         15          
2023-12-15 06   15.8   142.5   1000         15          
2023-12-15 12   15.8   142.4   1005         15          
2023-12-15 18   15.9   142.3   1001         20          
2023-12-16 00   16.1   141.8   1001         20          
2023-12-16 06   15.8   141.4    999         20          
2023-12-16 12   15.6   141.4   1000         20          
2023-12-16 18   15.7   141.4   1000         20          
2023-12-17 00   16.3   142.0   1002         20          
2023-12-17 06   16.1   141.9   1000         20          
2023-12-17 12   16.0   141.9   1000         20          
2023-12-17 18   15.6   142.3   1002         15          
2023-12-18 00   15.5   142.6   1003         15          
Winds are 10-min average.

Tropical cyclone tracks developed by Michael Bath using data from the Bureau of Meteorology and Google Maps.


Document: tropical_cyclone_jasper.htm
Updated: 7 February 2024
[Australian Severe Weather index] [Copyright Notice] [Email Contacts] [Search This Site] [Privacy Policy]


Main Index Home Page Stock Weather Photos Extreme Storms Discussion Storm News and Storm Chasing Reports Tropical Cyclones / Hurricanes / Typhoons Weather Data and Links Wild Fires / Bushfires Weather Observation Techniques Weather Picture Catalogue Tornado Pictures and Reports Stock Video Footage and DVDs for sale